createdAt,value
2022-12-07T00:02:16.079Z,82.08
2022-12-07T00:04:49.642Z,81.80
2022-12-07T00:07:27.594Z,81.39
2022-12-07T00:09:59.772Z,81.46
2022-12-07T00:12:32.416Z,81.83
2022-12-07T00:15:04.512Z,81.81
2022-12-07T00:17:36.710Z,82.27
2022-12-07T00:20:10.427Z,82.86
2022-12-07T00:22:44.828Z,82.22
2022-12-07T00:25:16.336Z,82.24
2022-12-07T00:27:50.401Z,82.46
2022-12-07T00:30:22.762Z,82.41
2022-12-07T00:32:57.653Z,82.33
2022-12-07T00:35:29.751Z,81.98
2022-12-07T00:38:01.456Z,82.19
2022-12-07T00:40:35.833Z,82.25
2022-12-07T00:43:07.594Z,82.53
2022-12-07T00:45:39.384Z,82.41
2022-12-07T00:51:25.819Z,81.91
2022-12-07T00:53:58.542Z,81.85
2022-12-07T00:56:31.651Z,82.15
2022-12-07T00:59:04.514Z,82.27
2022-12-07T01:01:38.771Z,81.99
2022-12-07T01:04:10.800Z,81.98
2022-12-07T01:06:42.935Z,81.81
2022-12-07T01:09:14.605Z,81.65
2022-12-07T01:11:46.453Z,81.80
2022-12-07T01:14:18.185Z,82.00
2022-12-07T01:16:49.837Z,81.97
2022-12-07T01:19:24.782Z,82.09
2022-12-07T01:21:58.323Z,81.80
2022-12-07T01:24:29.972Z,81.66
2022-12-07T01:27:01.681Z,81.46
2022-12-07T01:29:33.747Z,81.95
2022-12-07T01:32:06.143Z,82.04
2022-12-07T01:34:38.471Z,81.60
2022-12-07T01:37:10.143Z,81.95
2022-12-07T01:39:44.560Z,82.05
2022-12-07T01:42:16.731Z,82.19
2022-12-07T01:45:24.685Z,82.32
2022-12-07T01:47:59.606Z,81.97
2022-12-07T01:50:33.591Z,81.56
2022-12-07T01:53:10.110Z,81.54
2022-12-07T01:55:45.217Z,81.27
2022-12-07T01:58:17.968Z,81.25
2022-12-07T02:00:49.629Z,81.52
2022-12-07T02:03:36.661Z,81.77
2022-12-07T02:06:20.550Z,81.63
2022-12-07T02:08:56.798Z,81.70
2022-12-07T02:11:29.434Z,81.96
2022-12-07T02:14:01.761Z,81.92
2022-12-07T02:16:41.626Z,82.17
2022-12-07T02:19:42.300Z,82.71
2022-12-07T02:22:31.487Z,82.54
2022-12-07T02:25:14.999Z,82.17
2022-12-07T02:27:54.519Z,82.10
2022-12-07T02:30:32.246Z,82.00
2022-12-07T02:33:07.392Z,81.89
2022-12-07T02:35:46.418Z,82.11
2022-12-07T02:38:22.614Z,82.24
2022-12-07T02:40:58.003Z,82.15
2022-12-07T02:43:33.576Z,81.79
2022-12-07T02:46:11.032Z,81.71
2022-12-07T02:48:44.606Z,82.01
2022-12-07T02:51:16.367Z,81.96
2022-12-07T02:53:49.550Z,82.15
2022-12-07T02:56:36.516Z,81.92
2022-12-07T02:59:21.230Z,81.74
2022-12-07T03:02:07.443Z,81.94
2022-12-07T03:04:52.919Z,82.12
2022-12-07T03:07:35.870Z,81.85
2022-12-07T03:10:17.576Z,82.01
2022-12-07T03:12:59.585Z,82.11
2022-12-07T03:15:38.411Z,82.53
2022-12-07T03:18:14.204Z,82.18
2022-12-07T03:20:47.285Z,82.23
2022-12-07T03:23:21.410Z,82.34
2022-12-07T03:26:00.636Z,82.08
2022-12-07T03:28:40.085Z,82.05
2022-12-07T03:31:18.874Z,82.03
2022-12-07T03:33:56.603Z,81.89
2022-12-07T03:36:33.356Z,82.02
2022-12-07T03:39:14.378Z,82.51
2022-12-07T03:41:46.207Z,82.49
2022-12-07T03:44:22.597Z,82.46
2022-12-07T03:47:06.043Z,82.85
2022-12-07T03:49:44.621Z,83.10
2022-12-07T03:52:24.815Z,82.78
2022-12-07T03:55:02.894Z,82.25
2022-12-07T03:57:36.044Z,81.90
2022-12-07T04:00:11.010Z,81.96
2022-12-07T04:02:43.581Z,81.76
2022-12-07T04:05:15.862Z,81.44
2022-12-07T04:07:47.773Z,81.58
2022-12-07T04:10:35.962Z,82.05
2022-12-07T04:13:07.716Z,81.96
2022-12-07T04:15:41.775Z,81.77
2022-12-07T04:18:13.714Z,81.87
2022-12-07T04:20:45.881Z,82.22
2022-12-07T04:23:19.196Z,82.34
2022-12-07T04:25:52.100Z,82.46
2022-12-07T04:28:24.023Z,82.33
2022-12-07T04:38:17.766Z,81.32
2022-12-07T04:40:53.151Z,81.07
2022-12-07T04:43:24.893Z,80.98
2022-12-07T04:45:57.450Z,81.25
2022-12-07T04:48:30.024Z,81.37
2022-12-07T04:51:01.656Z,81.45
2022-12-07T04:53:33.374Z,81.58
2022-12-07T04:56:05.994Z,81.39
2022-12-07T04:58:38.055Z,81.35
2022-12-07T05:01:10.309Z,81.62
2022-12-07T05:03:42.488Z,81.75
2022-12-07T05:06:16.789Z,81.68
2022-12-07T05:09:33.634Z,81.79
2022-12-07T05:12:05.503Z,81.96
2022-12-07T05:14:38.454Z,81.65
2022-12-07T05:17:13.900Z,81.58
2022-12-07T05:19:45.709Z,81.55
2022-12-07T05:22:18.170Z,81.45
2022-12-07T05:24:52.877Z,81.20
2022-12-07T05:27:26.768Z,80.97
2022-12-07T05:30:01.546Z,81.23
2022-12-07T05:32:34.153Z,81.26
2022-12-07T05:35:06.655Z,81.17
2022-12-07T05:37:38.670Z,81.40
2022-12-07T05:40:12.733Z,81.45
2022-12-07T05:42:45.192Z,81.57
2022-12-07T05:45:18.916Z,81.63
2022-12-07T05:47:54.183Z,81.92
2022-12-07T05:50:26.894Z,82.37
2022-12-07T05:52:58.667Z,82.28
2022-12-07T05:55:31.407Z,82.08
2022-12-07T05:58:20.159Z,81.99
2022-12-07T06:00:52.075Z,82.13
2022-12-07T06:03:25.333Z,81.90
2022-12-07T06:05:57.602Z,81.76
2022-12-07T06:08:29.793Z,81.82
2022-12-07T06:11:15.484Z,81.96
2022-12-07T06:13:49.992Z,82.09
2022-12-07T06:16:22.458Z,82.32
2022-12-07T06:18:54.568Z,82.32
2022-12-07T06:21:27.260Z,82.35
2022-12-07T06:23:59.411Z,82.35
2022-12-07T06:26:31.691Z,82.19
2022-12-07T06:29:03.432Z,82.45
2022-12-07T06:31:35.695Z,82.57
2022-12-07T06:34:11.721Z,83.05
2022-12-07T06:36:44.006Z,82.85
2022-12-07T06:39:16.434Z,82.69
2022-12-07T06:41:49.239Z,82.38
2022-12-07T06:44:24.496Z,81.91
2022-12-07T06:47:24.593Z,82.12
2022-12-07T06:49:51.962Z,82.36
2022-12-07T06:52:23.677Z,82.37
2022-12-07T06:54:55.767Z,82.28
2022-12-07T06:57:27.617Z,82.41
2022-12-07T07:00:00.759Z,82.33
2022-12-07T07:02:33.311Z,82.25
2022-12-07T07:05:06.582Z,81.76
2022-12-07T07:07:58.238Z,81.96
2022-12-07T07:10:32.330Z,82.11
2022-12-07T07:13:04.560Z,82.55
2022-12-07T07:15:37.109Z,82.21
2022-12-07T07:18:10.017Z,81.87
2022-12-07T07:20:41.726Z,81.73
2022-12-07T07:23:14.765Z,81.81
2022-12-07T07:25:49.660Z,81.71
2022-12-07T07:28:22.501Z,81.80
2022-12-07T07:30:54.357Z,81.63
2022-12-07T07:33:26.267Z,81.97
2022-12-07T07:35:58.385Z,81.57
2022-12-07T07:38:32.102Z,81.55
2022-12-07T07:41:05.455Z,81.59
2022-12-07T07:43:38.146Z,81.67
2022-12-07T07:46:10.506Z,81.74
2022-12-07T07:48:47.007Z,81.63
2022-12-07T07:51:21.565Z,82.02
2022-12-07T07:54:10.986Z,82.03
2022-12-07T07:56:57.381Z,81.82
2022-12-07T07:59:35.287Z,81.19
2022-12-07T08:02:08.966Z,81.00
2022-12-07T08:04:41.094Z,81.07
2022-12-07T08:07:16.330Z,81.06
2022-12-07T08:09:55.784Z,80.72
2022-12-07T08:12:27.913Z,80.74
2022-12-07T08:15:03.007Z,80.64
2022-12-07T08:17:44.443Z,81.00
2022-12-07T08:20:17.944Z,80.91
2022-12-07T08:22:50.841Z,80.95
2022-12-07T08:25:30.289Z,80.81
2022-12-07T08:28:03.497Z,80.97
2022-12-07T08:30:42.048Z,80.87
2022-12-07T08:33:14.866Z,80.95
2022-12-07T08:35:46.703Z,81.15
2022-12-07T08:38:19.550Z,81.33
2022-12-07T08:41:01.223Z,81.65
2022-12-07T08:43:36.241Z,81.63
2022-12-07T08:46:15.925Z,81.37
2022-12-07T08:48:52.966Z,80.91
2022-12-07T08:51:26.655Z,80.72
2022-12-07T08:54:01.378Z,81.11
2022-12-07T08:56:33.068Z,81.53
2022-12-07T08:59:05.352Z,82.26
2022-12-07T09:01:38.738Z,82.75
2022-12-07T09:04:12.967Z,82.92
2022-12-07T09:06:52.739Z,82.68
2022-12-07T09:09:31.074Z,82.44
2022-12-07T09:12:08.975Z,82.06
2022-12-07T09:14:41.263Z,82.12
2022-12-07T09:17:24.433Z,82.14
2022-12-07T09:19:58.718Z,82.19
2022-12-07T09:22:40.274Z,82.35
2022-12-07T09:25:19.441Z,82.74
2022-12-07T09:28:24.562Z,82.59
2022-12-07T09:31:22.880Z,81.91
2022-12-07T09:33:59.395Z,81.85
2022-12-07T09:36:38.601Z,82.24
2022-12-07T09:39:13.966Z,82.02
2022-12-07T09:42:46.751Z,81.92
2022-12-07T09:45:57.175Z,81.74
2022-12-07T09:48:40.417Z,81.43
2022-12-07T09:51:23.835Z,81.34
2022-12-07T09:53:58.836Z,81.71
2022-12-07T09:56:34.194Z,81.62
2022-12-07T09:59:08.389Z,81.77
2022-12-07T10:01:43.711Z,81.73
2022-12-07T10:04:19.541Z,81.69
2022-12-07T10:06:52.480Z,81.59
2022-12-07T10:09:35.958Z,81.52
2022-12-07T10:12:11.370Z,81.83
2022-12-07T10:15:07.318Z,81.82
2022-12-07T10:17:44.893Z,81.52
2022-12-07T10:20:25.647Z,81.72
2022-12-07T10:23:04.411Z,81.68
2022-12-07T10:25:42.077Z,81.96
2022-12-07T10:28:19.881Z,81.82
2022-12-07T10:31:03.341Z,81.88
2022-12-07T10:33:51.129Z,82.28
2022-12-07T10:36:27.419Z,82.34
2022-12-07T10:39:06.125Z,82.36
2022-12-07T10:45:18.752Z,82.02
2022-12-07T10:48:04.778Z,81.92
2022-12-07T10:51:28.975Z,81.84
2022-12-07T10:54:13.072Z,82.11
2022-12-07T10:57:10.939Z,81.99
2022-12-07T11:00:00.161Z,82.37
2022-12-07T11:02:49.463Z,82.56
2022-12-07T11:05:30.659Z,82.44
2022-12-07T11:08:14.023Z,82.43
2022-12-07T11:10:53.510Z,82.35
2022-12-07T11:13:39.053Z,82.54
2022-12-07T11:16:24.855Z,82.69
2022-12-07T11:19:09.108Z,82.51
2022-12-07T11:21:51.039Z,82.57
2022-12-07T11:24:28.697Z,82.28
2022-12-07T11:27:19.640Z,82.37
2022-12-07T11:30:41.661Z,82.34
2022-12-07T11:33:24.074Z,81.83
2022-12-07T11:36:09.117Z,81.62
2022-12-07T11:38:46.971Z,81.87
2022-12-07T11:41:25.246Z,81.89
2022-12-07T11:44:08.162Z,82.06
2022-12-07T11:47:04.627Z,82.26
2022-12-07T11:49:51.603Z,82.37
2022-12-07T11:52:42.291Z,81.66
2022-12-07T11:55:28.264Z,81.32
2022-12-07T11:58:18.635Z,81.26
2022-12-07T12:01:03.628Z,80.97
2022-12-07T12:03:52.749Z,80.86
2022-12-07T12:06:27.789Z,80.63
2022-12-07T12:16:13.215Z,80.95
2022-12-07T12:19:20.030Z,80.54
2022-12-07T12:22:30.416Z,80.68
2022-12-07T12:25:19.591Z,80.54
2022-12-07T12:27:54.802Z,80.36
2022-12-07T12:30:47.829Z,80.22
2022-12-07T12:33:30.727Z,80.55
2022-12-07T12:36:25.721Z,80.82
2022-12-07T12:39:16.377Z,81.07
2022-12-07T12:42:22.328Z,80.74
2022-12-07T12:48:38.653Z,79.82
2022-12-07T12:51:52.424Z,79.90
2022-12-07T12:54:27.069Z,80.30
2022-12-07T12:57:08.813Z,80.44
2022-12-07T12:59:41.154Z,80.49
2022-12-07T13:02:24.595Z,80.49
2022-12-07T13:05:01.980Z,80.26
2022-12-07T13:08:02.407Z,79.79
2022-12-07T13:10:43.225Z,80.20
2022-12-07T13:13:37.221Z,79.91
2022-12-07T13:16:51.624Z,80.08
2022-12-07T13:20:01.018Z,79.52
2022-12-07T13:22:57.034Z,79.52
2022-12-07T13:25:38.516Z,79.40
2022-12-07T13:28:17.847Z,79.37
2022-12-07T13:31:00.340Z,79.60
2022-12-07T13:33:32.639Z,79.69
2022-12-07T13:36:04.911Z,79.67
2022-12-07T13:38:38.608Z,80.26
2022-12-07T13:41:18.078Z,80.36
2022-12-07T13:43:54.287Z,80.25
2022-12-07T13:46:43.902Z,79.87
2022-12-07T13:49:24.014Z,79.81
2022-12-07T13:52:15.516Z,79.55
2022-12-07T13:54:51.430Z,79.39
2022-12-07T13:57:24.132Z,79.54
2022-12-07T13:59:56.049Z,79.60
2022-12-07T14:02:34.415Z,79.96
2022-12-07T14:05:16.659Z,80.14
2022-12-07T14:07:59.358Z,80.26
2022-12-07T14:10:33.493Z,80.91
2022-12-07T14:13:25.405Z,80.83
2022-12-07T14:15:58.698Z,80.44
2022-12-07T14:18:39.455Z,79.79
2022-12-07T14:21:20.674Z,79.67
2022-12-07T14:24:11.329Z,79.74
2022-12-07T14:26:43.546Z,80.17
2022-12-07T14:29:40.976Z,80.53
2022-12-07T14:32:29.240Z,80.98
2022-12-07T14:35:03.891Z,80.81
2022-12-07T14:37:33.964Z,80.54
2022-12-07T14:40:06.282Z,80.37
2022-12-07T14:42:39.560Z,80.31
2022-12-07T14:45:18.556Z,80.69
2022-12-07T14:53:55.135Z,80.87
2022-12-07T14:56:31.668Z,80.80
2022-12-07T14:59:03.765Z,80.69
2022-12-07T15:01:36.206Z,81.07
2022-12-07T15:04:10.462Z,81.15
2022-12-07T15:06:57.298Z,80.89
2022-12-07T15:09:32.203Z,81.06
2022-12-07T15:12:04.997Z,80.50
2022-12-07T15:14:36.482Z,79.65
2022-12-07T15:17:25.935Z,79.69
2022-12-07T15:19:57.881Z,79.86
2022-12-07T15:22:38.724Z,80.33
2022-12-07T15:25:15.256Z,80.50
2022-12-07T15:27:47.032Z,80.28
2022-12-07T15:30:22.753Z,80.06
2022-12-07T15:32:56.398Z,80.48
2022-12-07T15:35:34.889Z,80.41
2022-12-07T15:38:06.941Z,80.47
2022-12-07T15:40:40.041Z,80.62
2022-12-07T15:43:33.138Z,80.77
2022-12-07T15:46:06.890Z,80.76
2022-12-07T15:49:00.753Z,80.41
2022-12-07T15:51:50.658Z,79.78
2022-12-07T15:54:26.758Z,79.54
2022-12-07T15:57:03.187Z,79.40
2022-12-07T15:59:35.013Z,79.83
2022-12-07T16:02:18.761Z,79.79
2022-12-07T16:04:52.358Z,79.49
2022-12-07T16:07:27.328Z,79.89
2022-12-07T16:10:01.730Z,80.25
2022-12-07T16:12:33.858Z,80.21
2022-12-07T16:15:10.603Z,80.22
2022-12-07T16:17:47.982Z,80.04
2022-12-07T16:21:23.310Z,79.40
2022-12-07T16:27:27.887Z,78.56
2022-12-07T16:27:35.110Z,79.22
2022-12-07T16:30:14.193Z,78.31
2022-12-07T16:33:09.185Z,78.55
2022-12-07T16:36:01.518Z,78.69
2022-12-07T16:38:33.538Z,78.61
2022-12-07T16:41:08.056Z,78.87
2022-12-07T16:43:43.760Z,79.33
2022-12-07T16:46:16.330Z,79.71
2022-12-07T16:48:50.571Z,79.72
2022-12-07T16:51:38.628Z,79.59
2022-12-07T16:57:23.173Z,79.26
2022-12-07T17:00:02.968Z,79.11
2022-12-07T17:02:41.328Z,78.88
2022-12-07T17:05:42.882Z,78.54
2022-12-07T17:08:43.712Z,78.20
2022-12-07T17:11:17.560Z,78.00
2022-12-07T17:14:14.203Z,78.14
2022-12-07T17:17:28.815Z,78.32
2022-12-07T17:20:08.600Z,78.80
2022-12-07T17:23:14.902Z,77.97
2022-12-07T17:25:59.077Z,78.10
2022-12-07T17:28:44.121Z,78.38
2022-12-07T17:31:20.468Z,78.18
2022-12-07T17:33:54.384Z,78.20
2022-12-07T17:36:30.709Z,78.09
2022-12-07T17:39:04.020Z,78.59
2022-12-07T17:41:55.327Z,78.85
2022-12-07T17:44:32.739Z,79.08
2022-12-07T17:47:09.236Z,78.75
2022-12-07T17:49:42.727Z,78.55
2022-12-07T17:52:32.659Z,78.72
2022-12-07T17:55:05.946Z,78.76
2022-12-07T17:57:39.023Z,78.11
2022-12-07T18:00:15.280Z,77.99
2022-12-07T18:02:47.608Z,77.81
2022-12-07T18:05:20.959Z,77.63
2022-12-07T18:07:54.275Z,78.02
2022-12-07T18:10:29.135Z,77.69
2022-12-07T18:13:29.185Z,77.79
2022-12-07T18:16:05.611Z,77.95
2022-12-07T18:18:40.508Z,77.28
2022-12-07T18:21:16.773Z,77.54
2022-12-07T18:23:58.192Z,77.24
2022-12-07T18:26:36.278Z,76.94
2022-12-07T18:29:11.025Z,77.20
2022-12-07T18:32:02.649Z,77.34
2022-12-07T18:34:49.137Z,77.22
2022-12-07T18:37:34.348Z,76.74
2022-12-07T18:40:21.480Z,76.72
2022-12-07T18:43:08.820Z,76.93
2022-12-07T18:45:44.017Z,76.94
2022-12-07T18:48:17.228Z,76.96
2022-12-07T18:51:03.126Z,77.00
2022-12-07T18:53:43.737Z,76.97
2022-12-07T18:56:37.583Z,77.15
2022-12-07T18:59:28.373Z,77.09
2022-12-07T19:02:05.583Z,76.77
2022-12-07T19:04:39.116Z,76.94
2022-12-07T19:07:18.565Z,77.18
2022-12-07T19:09:54.672Z,76.86
2022-12-07T19:12:27.956Z,76.35
2022-12-07T19:15:05.744Z,76.72
2022-12-07T19:17:42.927Z,76.96
2022-12-07T19:20:18.446Z,76.70
2022-12-07T19:22:51.962Z,76.40
2022-12-07T19:25:27.296Z,76.53
2022-12-07T19:28:02.755Z,76.85
2022-12-07T19:30:36.690Z,76.90
2022-12-07T19:33:10.969Z,76.72
2022-12-07T19:35:43.886Z,76.47
2022-12-07T19:38:20.991Z,76.20
2022-12-07T19:40:55.410Z,76.22
2022-12-07T19:43:36.568Z,76.21
2022-12-07T19:46:33.446Z,76.40
2022-12-07T19:49:09.316Z,76.57
2022-12-07T19:51:54.213Z,76.07
2022-12-07T19:54:33.658Z,75.78
2022-12-07T19:57:13.364Z,75.83
2022-12-07T19:59:47.663Z,76.44
2022-12-07T20:02:25.897Z,75.86
2022-12-07T20:05:30.506Z,75.67
2022-12-07T20:08:41.835Z,75.76
2022-12-07T20:12:10.858Z,76.01
2022-12-07T20:14:55.542Z,76.17
2022-12-07T20:18:01.240Z,75.92
2022-12-07T20:21:04.959Z,75.78
2022-12-07T20:23:39.514Z,75.59
2022-12-07T20:26:17.133Z,75.64
2022-12-07T20:28:59.986Z,75.82
2022-12-07T20:31:47.388Z,75.40
2022-12-07T20:34:29.679Z,75.49
2022-12-07T20:37:22.689Z,75.27
2022-12-07T20:40:19.033Z,75.07
2022-12-07T20:42:59.353Z,75.46
2022-12-07T20:45:33.008Z,75.70
2022-12-07T20:48:24.350Z,76.33
2022-12-07T20:51:11.641Z,76.17
2022-12-07T20:53:45.137Z,76.56
2022-12-07T20:56:24.896Z,76.56
2022-12-07T20:59:01.126Z,76.23
2022-12-07T21:01:34.096Z,76.17
2022-12-07T21:04:09.086Z,76.08
2022-12-07T21:06:41.818Z,76.02
2022-12-07T21:09:14.945Z,76.25
2022-12-07T21:11:54.322Z,76.66
2022-12-07T21:15:04.163Z,76.22
2022-12-07T21:17:51.414Z,75.83
2022-12-07T21:20:23.186Z,75.90
2022-12-07T21:23:09.456Z,76.06
2022-12-07T21:26:08.610Z,76.07
2022-12-07T21:28:44.705Z,75.97
2022-12-07T21:31:29.549Z,75.72
2022-12-07T21:34:08.234Z,75.74
2022-12-07T21:37:16.780Z,76.09
2022-12-07T21:40:20.056Z,76.20
2022-12-07T21:42:54.979Z,75.55
2022-12-07T21:45:31.858Z,75.51
2022-12-07T21:48:07.056Z,75.59
2022-12-07T21:51:06.594Z,76.30
2022-12-07T21:53:56.066Z,76.95
2022-12-07T21:56:34.595Z,76.88
2022-12-07T21:59:09.419Z,76.85
2022-12-07T22:01:45.693Z,77.22
2022-12-07T22:04:19.755Z,77.49
2022-12-07T22:06:52.775Z,77.65
2022-12-07T22:09:30.301Z,77.66
2022-12-07T22:12:38.531Z,77.92
2022-12-07T22:15:26.932Z,77.79
2022-12-07T22:18:43.754Z,77.41
2022-12-07T22:21:54.279Z,77.50
2022-12-07T22:24:50.242Z,77.28
2022-12-07T22:27:21.798Z,77.30
2022-12-07T22:29:53.294Z,77.31
2022-12-07T22:32:47.721Z,77.54
2022-12-07T22:35:16.140Z,77.72
2022-12-07T22:37:47.721Z,78.04
2022-12-07T22:40:19.554Z,78.06
2022-12-07T22:42:54.320Z,77.66
2022-12-07T22:45:23.983Z,77.82
2022-12-07T22:47:55.803Z,77.87
2022-12-07T22:50:27.371Z,77.97
2022-12-07T22:53:21.636Z,78.26
2022-12-07T22:55:53.364Z,78.40
2022-12-07T22:58:24.859Z,78.32
2022-12-07T23:00:56.727Z,78.28
2022-12-07T23:03:28.432Z,78.61
2022-12-07T23:06:00.004Z,78.54
2022-12-07T23:08:31.554Z,78.99
2022-12-07T23:11:03.044Z,78.65
2022-12-07T23:13:36.936Z,78.51
2022-12-07T23:16:15.463Z,78.97
2022-12-07T23:18:49.082Z,78.85
2022-12-07T23:21:27.713Z,78.33
2022-12-07T23:23:59.170Z,78.02
2022-12-07T23:26:30.968Z,78.23
2022-12-07T23:29:05.560Z,78.62
2022-12-07T23:31:43.374Z,78.89
2022-12-07T23:34:19.854Z,78.64
2022-12-07T23:36:51.524Z,78.31
2022-12-07T23:39:28.736Z,78.34
2022-12-07T23:42:00.227Z,78.05
2022-12-07T23:44:31.837Z,78.23
2022-12-07T23:47:04.109Z,78.28
2022-12-07T23:49:35.890Z,78.66
2022-12-07T23:52:07.496Z,78.80
2022-12-07T23:54:39.116Z,78.83
2022-12-07T23:57:10.686Z,78.82
2022-12-07T23:59:42.666Z,78.57
